Seyfert, Pennsylvania
Current Conditions -  °F | °C
As of 12:54 AM on Wednesday 26 Nov 2014 (Local Time) from KRDG Reporting Station
Clear Clear  
Wind Chill: 40°   Ceiling: Unl
Heat Index: 40°   Visibility: 10mi
Dew Point: 32°   Wind: 3mph
Humidity: 73%   Direction: 340°NNW
Pressure: 30.16"   Gusts: NA
Location:  40.2313°N, 75.8555°W
Report Text: KRDG 260554Z 34003KT 10SM CLR 04/00 A3016 RMK AO2 SLP220 T00440000 10083 20033 51012
Loading
Personal Weather Stations






























Interactive Weather Map New forecast layout! Learn more

10-Day Weather Forecast

Advertisements
Track Severe Weather on mobile